Flight Track Log - Related Links

Times and Time Zones

All times are in EDT time to prevent confusion due to time zone crossing. See the N400PU flight status page for this flight to view local times or setup timezone preferences in your user account.

Time Position Orientation Groundspeed Altitude Reporting Facility
EDT Latitude Longitude Course Direction KTS MPH feet Rate Location/Type
Fri 03:13:17 PM 38.6500 -90.7167 27° Northeast 180 207 3,400  Level Gateway (St. Louis) TRACON
Fri 03:14:17 PM 38.6500 -90.7833 270° West 218 251 5,400 2,150 Climbing Gateway (St. Louis) TRACON
Fri 03:15:17 PM 38.7167 -90.7500 21° North 258 297 7,700 2,300 Climbing Gateway (St. Louis) TRACON
Fri 03:16:17 PM 38.7500 -90.6667 63° Northeast 274 315 10,000 1,905 Climbing Gateway (St. Louis) TRACON
Fri 03:17:23 PM 38.8000 -90.5833 52° Northeast 315 362 11,700 1,740 Climbing Gateway (St. Louis) TRACON
Fri 03:18:00 PM 39.0092 -90.1939 27° Northeast  Level FlightAware Approximate
Fri 03:18:28 PM 38.8472 -90.4831 59° Northeast 327 376 13,800  Level Kansas City Center
Fri 03:19:30 PM 38.8950 -90.3789 59° Northeast 329 379 16,200 1,861 Climbing Kansas City Center
Fri 03:21:35 PM 38.9914 -90.1736 52° Northeast 332 382 19,600 1,557 Climbing Kansas City Center
Fri 03:22:35 PM 39.0406 -90.0650 60° Northeast 346 398 21,000 677 Climbing Kansas City Center
Fri 03:23:39 PM 39.0950 -89.9425 60° Northeast 367 422 21,000  Level Kansas City Center
Fri 03:24:39 PM 39.1581 -89.8092 59° Northeast 422 486 21,000  Level Kansas City Center
Fri 03:25:43 PM 39.2269 -89.6578 60° Northeast 448 516 21,000  Level Kansas City Center
Fri 03:26:44 PM 39.2900 -89.5183 60° Northeast 450 518 21,000  Level Kansas City Center
Fri 03:27:45 PM 39.3525 -89.3806 60° Northeast 450 518 21,000  Level Kansas City Center
Fri 03:28:49 PM 39.4150 -89.2428 60° Northeast 448 516 21,000  Level Kansas City Center
Fri 03:29:51 PM 39.4781 -89.0994 60° Northeast 446 513 21,000  Level Kansas City Center
Fri 03:30:52 PM 39.5386 -88.9631 60° Northeast 442 509 21,000  Level Kansas City Center
Fri 03:31:56 PM 39.6117 -88.7989 60° Northeast 442 509 21,000  Level Kansas City Center
Fri 03:32:56 PM 39.6728 -88.6633 60° Northeast 441 507 21,000  Level Kansas City Center
Fri 03:34:00 PM 39.7325 -88.5256 61° Northeast 440 506 21,000 -97 Level Kansas City Center
Fri 03:35:00 PM 39.7928 -88.3886 60° Northeast 440 506 20,800 -836 Descending Kansas City Center
Fri 03:36:02 PM 39.8519 -88.2525 60° Northeast 439 505 19,300 -1,558 Descending Kansas City Center
Fri 03:36:44 PM 39.8981 -88.1467 60° Northeast 432 497 18,100 -1,615 Descending Chicago Center
Fri 03:37:46 PM 39.9606 -88.0039 60° Northeast 419 482 16,500 -1,500 Descending Chicago Center
Fri 03:38:48 PM 40.0153 -87.8758 61° Northeast 410 472 15,000 -1,434 Descending Chicago Center
Fri 03:39:39 PM 40.0578 -87.7753 61° Northeast 400 460 13,800 -1,434 Descending Indianapolis Center
Fri 03:40:41 PM 40.1111 -87.6514 61° Northeast 395 455 12,300 -1,500 Descending Indianapolis Center
Fri 03:41:55 PM 40.1733 -87.5089 60° Northeast 382 440 10,400 -1,676 Descending Chicago Center
Fri 03:42:32 PM 40.2047 -87.4317 62° Northeast 319 367 9,200 -1,548 Descending Chicago Center
Fri 03:42:57 PM 40.2131 -87.4072 66° East 317 365 8,800 -1,667 Descending Chicago Center
Fri 03:43:26 PM 40.2356 -87.3467 64° Northeast 283 326 7,700 -2,323 Descending Chicago Center
Fri 03:43:59 PM 40.2608 -87.2967 56° Northeast 295 339 6,400 -2,262 Descending Chicago Center
Fri 03:45:28 PM 40.3161 -87.1669 61° Northeast 286 329 3,100 -1,632 Descending Chicago Center
Fri 03:46:04 PM 40.3392 -87.1178 58° Northeast 288 331 3,000 -295 Descending Chicago Center
Fri 03:46:29 PM 40.3506 -87.0850 65° Northeast 226 260 2,800 -290 Descending Chicago Center
Fri 03:47:06 PM 40.3761 -87.0297 59° Northeast 274 315 2,700 -700 Descending Chicago Center
Fri 03:47:29 PM 40.3828 -87.0133 62° Northeast 215 247 2,100 -468 Descending Chicago Center
Fri 03:48:23 PM 40.3833 -86.9453 89° East 213 245 2,100  Level Chicago Center
Fri 03:49:24 PM 40.3731 -86.8844 102° East 169 194 2,100 -83 Level Chicago Center
Fri 03:49:35 PM 40.3797 -86.8714 56° Northeast 174 200 2,000 -689 Descending Chicago Center
Fri 03:50:25 PM 40.4047 -86.8756 353° North 144 166 1,400  Descending Chicago Center
Fri 03:50:37 PM 40.4089 -86.8225 84° East 172 198 2,000 3,000 Climbing Chicago Center

Login

Don't have an account? Register now (free) for customized features, flight alerts, and more!